Time;durP1;ratioP1;P1;durP2;ratioP2;P2;SDS_P1;SDS_P2;PMS_P1;PMS_P2;Temp;Humidity;BMP_temperature;BMP_pressure;BME280_temperature;BME280_humidity;BME280_pressure;Samples;Min_cycle;Max_cycle;Signal;HPM_P1;HPM_P2
2022/12/14 00:01:17;;;;;;;77.80;28.40;;;-5.90;99.90;;;-8.13;100.00;100485.84;4995037;28;20026;-69
2022/12/14 00:03:44;;;;;;;67.47;26.17;;;-5.90;99.90;;;-8.25;100.00;100489.81;4988786;28;20052;-69
2022/12/14 00:06:18;;;;;;;66.50;25.90;;;-6.00;99.90;;;-8.40;100.00;100486.88;4964867;28;20053;-69
2022/12/14 00:08:46;;;;;;;67.72;25.40;;;-6.10;99.90;;;-8.43;100.00;100485.94;5001697;28;20025;-69
2022/12/14 00:11:13;;;;;;;67.15;27.08;;;-6.10;99.90;;;-8.44;100.00;100466.34;5002056;28;20033;-69
2022/12/14 00:13:40;;;;;;;68.75;28.85;;;-6.10;99.90;;;-8.39;100.00;100474.97;5000451;28;20126;-69
2022/12/14 00:16:14;;;;;;;73.05;27.17;;;-6.10;99.90;;;-8.34;100.00;100473.38;4983508;28;20121;-69
2022/12/14 00:18:41;;;;;;;73.15;26.50;;;-6.10;99.90;;;-8.30;100.00;100480.31;4981856;28;20034;-68
2022/12/14 00:21:12;;;;;;;79.97;30.42;;;-6.10;99.90;;;-8.27;100.00;100472.69;4968436;28;20041;-69
2022/12/14 00:23:41;;;;;;;77.13;28.83;;;-6.10;99.90;;;-8.21;100.00;100470.31;5002265;28;20037;-69
2022/12/14 00:26:17;;;;;;;75.72;29.88;;;-6.00;99.90;;;-8.19;100.00;100478.88;4985971;28;20034;-69
2022/12/14 00:28:45;;;;;;;75.95;29.92;;;-6.00;99.90;;;-8.19;100.00;100481.44;5000166;28;20457;-69
2022/12/14 00:31:11;;;;;;;75.63;28.05;;;-6.00;99.90;;;-8.15;100.00;100474.72;5001528;28;20076;-68
2022/12/14 00:33:38;;;;;;;73.13;28.42;;;-5.90;99.90;;;-8.14;100.00;100479.88;4986150;28;20667;-69
2022/12/14 00:36:06;;;;;;;75.47;27.67;;;-5.90;99.90;;;-8.14;100.00;100481.53;4986604;28;20041;-69
2022/12/14 00:38:32;;;;;;;78.57;30.40;;;-6.00;99.90;;;-8.17;100.00;100478.94;5003924;28;20368;-69
2022/12/14 00:40:58;;;;;;;63.47;27.27;;;-6.00;99.90;;;-8.21;100.00;100474.56;4984031;28;20030;-69
2022/12/14 00:43:25;;;;;;;74.80;27.40;;;-6.00;99.90;;;-8.22;100.00;100477.97;4985246;28;20029;-69
2022/12/14 00:45:51;;;;;;;68.70;28.15;;;-6.10;99.90;;;-8.25;100.00;100468.50;4990691;28;20806;-68
2022/12/14 00:48:19;;;;;;;67.15;27.25;;;-6.10;99.90;;;-8.26;100.00;100466.78;4986179;28;20117;-69
2022/12/14 00:50:47;;;;;;;63.03;24.52;;;-6.10;99.90;;;-8.52;100.00;100461.91;5001586;28;20028;-69
2022/12/14 00:53:13;;;;;;;62.58;24.92;;;-6.20;99.90;;;-8.58;100.00;100464.28;4987095;28;20433;-69
2022/12/14 00:55:41;;;;;;;64.55;25.27;;;-6.30;99.90;;;-8.57;100.00;100457.47;4983181;28;20046;-69
2022/12/14 00:58:11;;;;;;;60.90;24.90;;;-6.30;99.90;;;-8.63;100.00;100460.75;4989990;28;20038;-69
2022/12/14 01:00:37;;;;;;;62.25;24.77;;;-6.40;99.90;;;-8.68;100.00;100457.22;4986388;28;20048;-69
2022/12/14 01:03:04;;;;;;;61.55;24.75;;;-6.40;99.90;;;-8.77;100.00;100454.41;4983679;28;20077;-69
2022/12/14 01:05:30;;;;;;;66.10;24.85;;;-6.50;99.90;;;-8.87;100.00;100455.84;4982346;28;20110;-69
2022/12/14 01:07:56;;;;;;;60.92;24.98;;;-6.60;99.90;;;-8.89;100.00;100454.94;4984487;28;20034;-69
2022/12/14 01:10:22;;;;;;;71.07;25.13;;;-6.60;99.90;;;-8.88;100.00;100459.22;4988383;28;20096;-69
2022/12/14 01:12:48;;;;;;;68.78;25.48;;;-6.60;99.90;;;-8.84;100.00;100463.59;5001881;28;20029;-69
2022/12/14 01:15:13;;;;;;;70.68;27.40;;;-6.50;99.90;;;-8.82;100.00;100461.09;4984705;28;20029;-69
2022/12/14 01:17:39;;;;;;;71.15;26.15;;;-6.50;99.90;;;-8.79;100.00;100458.59;4982345;28;20168;-69
2022/12/14 01:20:06;;;;;;;75.60;27.50;;;-6.50;99.90;;;-8.76;100.00;100461.25;4983696;28;20176;-68
2022/12/14 01:22:31;;;;;;;58.55;26.13;;;-6.40;99.90;;;-8.69;100.00;100455.47;5003605;28;20034;-68
2022/12/14 01:24:57;;;;;;;70.97;26.92;;;-6.40;99.90;;;-8.67;100.00;100446.19;5003223;28;20113;-69
2022/12/14 01:27:23;;;;;;;75.32;27.98;;;-6.40;99.90;;;-8.64;100.00;100459.00;4984181;28;20096;-69
2022/12/14 01:29:49;;;;;;;68.50;25.65;;;-6.40;99.90;;;-8.63;100.00;100452.25;4965053;28;20026;-69
2022/12/14 01:32:14;;;;;;;68.53;27.13;;;-6.40;99.90;;;-8.62;100.00;100447.16;4991191;28;20109;-69
2022/12/14 01:34:40;;;;;;;67.15;27.85;;;-6.30;99.90;;;-8.59;100.00;100454.91;5003862;28;20030;-69
2022/12/14 01:37:06;;;;;;;69.90;26.25;;;-6.30;99.90;;;-8.54;100.00;100457.59;5004614;28;20033;-69
2022/12/14 01:39:32;;;;;;;67.95;25.77;;;-6.30;99.90;;;-8.53;100.00;100456.75;4990901;28;20026;-68
2022/12/14 01:41:58;;;;;;;66.70;26.25;;;-6.30;99.90;;;-8.51;100.00;100450.00;4997929;28;20080;-69
2022/12/14 01:44:23;;;;;;;65.38;25.50;;;-6.30;99.90;;;-8.48;100.00;100455.19;5003175;28;20561;-69
2022/12/14 01:47:04;;;;;;;66.25;27.40;;;-6.20;99.90;;;-8.43;100.00;100457.88;5004123;28;20117;-69
2022/12/14 01:49:54;;;;;;;66.10;26.33;;;-6.30;99.90;;;-8.42;100.00;100452.81;5001304;28;20033;-69
2022/12/14 01:52:45;;;;;;;65.65;26.40;;;-6.20;99.90;;;-8.38;100.00;100446.03;4984842;28;20030;-69
2022/12/14 01:55:25;;;;;;;70.22;27.40;;;-6.20;99.90;;;-8.36;100.00;100435.03;4998937;28;20045;-69
2022/12/14 01:58:06;;;;;;;65.75;26.73;;;-6.10;99.90;;;-8.34;100.00;100435.94;5001612;28;20538;-69
2022/12/14 02:00:32;;;;;;;62.63;25.73;;;-6.10;99.90;;;-8.34;100.00;100428.25;4988953;28;20045;-69
2022/12/14 02:03:11;;;;;;;62.22;26.13;;;-6.10;99.90;;;-8.30;100.00;100429.22;4999175;28;20030;-69
2022/12/14 02:05:43;;;;;;;60.50;24.15;;;-6.10;99.90;;;-8.30;100.00;100430.06;4981392;28;20264;-69
2022/12/14 02:08:10;;;;;;;69.35;25.67;;;-6.10;99.90;;;-8.27;100.00;100432.72;4999472;28;20034;-69
2022/12/14 02:10:35;;;;;;;58.95;24.35;;;-6.00;99.90;;;-8.22;100.00;100437.94;5004650;28;20053;-69
2022/12/14 02:13:11;;;;;;;58.47;23.70;;;-6.00;99.90;;;-8.25;100.00;100433.63;4983759;28;20065;-69
2022/12/14 02:15:38;;;;;;;58.63;23.77;;;-6.10;99.90;;;-8.30;100.00;100430.06;4983680;28;20052;-69
2022/12/14 02:18:07;;;;;;;52.97;22.95;;;-6.10;99.90;;;-8.35;100.00;100430.81;4998827;28;20041;-69
2022/12/14 02:20:56;;;;;;;55.97;23.60;;;-6.10;99.90;;;-8.36;100.00;100429.06;4985362;28;20162;-69
2022/12/14 02:24:06;;;;;;;58.28;23.17;;;-6.10;99.90;;;-8.40;100.00;100428.13;4965472;28;20092;-69
2022/12/14 02:27:38;;;;;;;52.95;23.77;;;-6.20;99.90;;;-8.46;100.00;100421.22;4901406;29;20071;-69
2022/12/14 02:30:05;;;;;;;55.08;24.00;;;-6.20;99.90;;;-8.43;100.00;100425.53;4840578;29;20040;-69
2022/12/14 02:33:02;;;;;;;55.45;21.90;;;-6.20;99.90;;;-8.46;100.00;100418.66;4993292;28;20053;-69
2022/12/14 02:35:50;;;;;;;49.90;21.50;;;-6.30;99.90;;;-8.49;100.00;100413.47;5002806;28;20100;-69
2022/12/14 02:38:48;;;;;;;56.53;22.00;;;-6.30;99.90;;;-8.51;100.00;100412.56;5000237;28;20067;-69
2022/12/14 02:41:45;;;;;;;52.70;22.27;;;-6.30;99.90;;;-8.51;100.00;100412.56;5000974;28;20045;-69
2022/12/14 02:44:35;;;;;;;51.40;22.40;;;-6.30;99.90;;;-8.53;100.00;100409.13;4982553;28;20060;-69
2022/12/14 02:47:13;;;;;;;48.42;20.42;;;-6.40;99.90;;;-8.64;100.00;100394.34;4969237;28;20160;-69
2022/12/14 02:50:01;;;;;;;41.88;18.95;;;-6.50;99.90;;;-8.78;100.00;100386.34;4986626;28;20037;-69
2022/12/14 02:53:08;;;;;;;41.35;16.95;;;-6.50;99.90;;;-8.87;100.00;100374.19;4998084;28;20037;-69
2022/12/14 02:55:51;;;;;;;41.78;17.50;;;-6.50;99.90;;;-8.89;100.00;100374.16;4982735;28;20034;-68
2022/12/14 02:58:31;;;;;;;40.63;18.10;;;-6.60;99.90;;;-8.81;100.00;100382.03;5003046;28;20047;-69
2022/12/14 03:00:58;;;;;;;40.75;17.73;;;-6.60;99.90;;;-8.80;100.00;100377.78;4981753;28;20061;-69
2022/12/14 03:03:24;;;;;;;42.13;16.67;;;-6.60;99.90;;;-8.77;100.00;100380.38;4998727;28;20421;-68
2022/12/14 03:06:03;;;;;;;35.90;16.63;;;-6.60;99.90;;;-8.79;100.00;100377.81;4984152;28;20023;-69
2022/12/14 03:08:34;;;;;;;36.28;16.40;;;-6.60;99.90;;;-8.77;100.00;100375.28;5003800;28;20041;-69
2022/12/14 03:11:04;;;;;;;41.20;16.38;;;-6.60;99.90;;;-8.76;100.00;100385.53;4991144;28;20044;-69
2022/12/14 03:13:50;;;;;;;39.22;15.38;;;-6.60;99.90;;;-8.78;100.00;100381.22;4970322;28;20384;-69
2022/12/14 03:16:23;;;;;;;32.92;14.05;;;-6.50;99.90;;;-8.76;100.00;100382.13;5003911;28;20046;-69
2022/12/14 03:19:07;;;;;;;31.92;14.50;;;-6.50;99.90;;;-8.69;100.00;100384.00;4985822;28;20030;-69
2022/12/14 03:21:43;;;;;;;34.45;14.18;;;-6.50;99.90;;;-8.67;100.00;100387.47;4989938;28;20046;-68
2022/12/14 03:24:14;;;;;;;37.60;15.45;;;-6.40;99.90;;;-8.62;100.00;100375.69;4990111;28;20025;-69
2022/12/14 03:26:59;;;;;;;36.53;15.45;;;-6.40;99.90;;;-8.61;100.00;100382.53;4986873;28;20022;-68
2022/12/14 03:29:30;;;;;;;36.72;16.20;;;-6.50;99.90;;;-8.64;100.00;100382.44;5000479;28;20034;-69
2022/12/14 03:32:02;;;;;;;31.90;13.90;;;-6.40;99.90;;;-8.65;100.00;100375.59;5001626;28;20077;-68
2022/12/14 03:34:37;;;;;;;38.40;16.00;;;-6.50;99.90;;;-8.64;100.00;100376.47;4989037;28;20038;-69
2022/12/14 03:37:11;;;;;;;37.75;16.23;;;-6.50;99.90;;;-8.64;100.00;100372.22;5003240;28;20199;-69
2022/12/14 03:39:41;;;;;;;41.85;16.35;;;-6.50;99.90;;;-8.69;100.00;100368.69;5003520;28;20064;-69
2022/12/14 03:42:38;;;;;;;34.13;15.45;;;-6.50;99.90;;;-8.68;100.00;100371.28;4984949;28;20029;-69
2022/12/14 03:45:27;;;;;;;41.33;14.70;;;-6.50;99.90;;;-8.69;100.00;100363.59;5005047;28;20037;-69
2022/12/14 03:48:26;;;;;;;32.30;14.15;;;-6.50;99.90;;;-8.72;100.00;100360.97;5005908;28;20088;-69
2022/12/14 03:51:29;;;;;;;36.97;15.73;;;-6.50;99.90;;;-8.74;100.00;100363.47;5004626;28;20037;-69
2022/12/14 03:54:59;;;;;;;38.92;16.30;;;-6.50;99.90;;;-8.79;100.00;100354.84;5000902;28;20030;-69
2022/12/14 03:57:46;;;;;;;35.88;15.85;;;-6.60;99.90;;;-8.93;100.00;100348.53;5001041;28;20038;-69
2022/12/14 04:00:21;;;;;;;35.15;15.18;;;-6.70;99.90;;;-9.12;100.00;100342.06;5006194;28;20450;-69
2022/12/14 04:03:14;;;;;;;37.78;14.88;;;-6.90;99.90;;;-9.35;99.51;100341.44;4984949;28;20022;-69
2022/12/14 04:06:11;;;;;;;32.50;12.73;;;-7.10;99.90;;;-9.72;98.45;100331.09;5000653;28;20133;-68
2022/12/14 04:09:21;;;;;;;30.17;12.30;;;-7.30;99.90;;;-9.99;97.15;100330.28;5004739;28;20033;-69
2022/12/14 04:20:55;;;;;;;36.92;12.70;;;-7.80;99.90;;;-10.31;97.50;100312.34;4993151;28;20411;-68
2022/12/14 04:26:27;;;;;;;35.33;13.85;;;-7.80;99.90;;;-10.16;97.50;100317.03;5000107;28;20128;-68
2022/12/14 04:31:49;;;;;;;36.70;13.82;;;-7.80;99.90;;;-10.09;98.30;100321.47;4986011;28;20072;-68
2022/12/14 04:34:19;;;;;;;37.80;15.30;;;-7.80;99.90;;;-10.05;98.78;100310.56;5003051;28;20490;-69
2022/12/14 04:36:52;;;;;;;34.72;15.07;;;-7.70;99.90;;;-9.95;99.02;100309.16;4969152;28;20040;-68
2022/12/14 04:39:46;;;;;;;35.30;15.32;;;-7.70;99.90;;;-9.92;99.27;100309.25;4984527;28;20068;-68
2022/12/14 04:42:15;;;;;;;38.53;14.82;;;-7.70;99.90;;;-9.94;99.15;100295.59;4999924;28;20029;-68
2022/12/14 04:44:52;;;;;;;36.70;17.02;;;-7.70;99.90;;;-9.90;99.59;100302.50;4988368;28;20643;-69
2022/12/14 04:47:22;;;;;;;40.70;16.80;;;-7.60;99.90;;;-9.86;99.78;100296.69;4988052;28;20482;-68
2022/12/14 04:50:06;;;;;;;39.13;16.60;;;-7.50;99.90;;;-9.82;99.93;100295.09;5001742;28;20130;-69
2022/12/14 04:52:46;;;;;;;36.40;15.70;;;-7.50;99.90;;;-9.80;100.00;100294.31;4982131;28;20610;-69
2022/12/14 04:55:57;;;;;;;45.78;15.40;;;-7.50;99.90;;;-9.79;100.00;100285.84;5001144;28;20033;-69
2022/12/14 04:58:27;;;;;;;35.55;15.10;;;-7.50;99.90;;;-9.76;100.00;100285.94;4977608;28;20049;-69
2022/12/14 05:02:04;;;;;;;34.22;15.35;;;-7.40;99.90;;;-9.72;100.00;100282.66;4986375;28;20164;-68
2022/12/14 05:05:07;;;;;;;34.05;15.43;;;-7.40;99.90;;;-9.72;100.00;100280.13;4944935;28;20429;-69
2022/12/14 05:08:01;;;;;;;38.20;15.75;;;-7.50;99.90;;;-9.66;100.00;100283.66;5001487;28;20038;-69
2022/12/14 05:10:49;;;;;;;36.15;15.25;;;-7.50;99.90;;;-9.75;100.00;100277.47;4987418;28;20061;-69
2022/12/14 05:13:32;;;;;;;37.75;16.38;;;-7.50;99.90;;;-9.76;100.00;100277.41;5000712;28;20034;-69
2022/12/14 05:15:58;;;;;;;47.35;17.30;;;-7.50;99.90;;;-9.78;100.00;100271.41;4969865;28;20046;-68
2022/12/14 05:18:25;;;;;;;38.70;15.55;;;-7.50;99.90;;;-9.75;100.00;100277.47;4981035;28;20498;-68
2022/12/14 05:20:50;;;;;;;40.05;16.92;;;-7.50;99.90;;;-9.77;100.00;100279.09;4989059;28;20465;-69
2022/12/14 05:23:16;;;;;;;40.13;15.45;;;-7.50;99.90;;;-9.77;100.00;100271.47;4983383;28;20034;-68
2022/12/14 05:25:42;;;;;;;45.47;16.92;;;-7.60;99.90;;;-9.78;99.82;100266.31;4966848;28;20029;-69
2022/12/14 05:28:10;;;;;;;41.90;17.35;;;-7.60;99.90;;;-9.82;100.00;100269.63;4982885;28;20065;-68
2022/12/14 05:30:36;;;;;;;45.78;19.13;;;-7.50;99.90;;;-9.84;99.86;100264.47;4983632;28;20031;-68
2022/12/14 05:33:02;;;;;;;42.13;18.92;;;-7.50;99.90;;;-9.79;100.00;100262.91;4988685;28;20037;-68
2022/12/14 05:35:28;;;;;;;50.92;19.63;;;-7.50;99.90;;;-9.75;100.00;100267.28;5004325;28;20081;-69
2022/12/14 05:37:54;;;;;;;40.55;17.42;;;-7.50;99.90;;;-9.71;100.00;100260.59;4968105;28;20038;-68
2022/12/14 05:40:20;;;;;;;39.90;17.33;;;-7.50;99.90;;;-9.72;100.00;100266.50;4981712;28;20039;-68
2022/12/14 05:42:46;;;;;;;36.58;16.02;;;-7.50;99.90;;;-9.85;100.00;100265.28;4967738;28;20030;-69
2022/12/14 05:45:13;;;;;;;35.80;16.50;;;-7.60;99.90;;;-9.89;100.00;100258.41;4986339;28;20439;-68
2022/12/14 05:47:39;;;;;;;38.78;15.38;;;-7.70;99.90;;;-10.06;99.58;100251.94;4986533;28;20029;-69
2022/12/14 05:50:07;;;;;;;42.20;15.13;;;-7.70;99.90;;;-10.27;99.45;100237.78;4983938;28;20446;-68
2022/12/14 05:52:32;;;;;;;38.25;14.70;;;-7.80;99.90;;;-10.34;99.58;100229.13;4998377;28;20088;-68
2022/12/14 05:54:58;;;;;;;39.22;15.77;;;-7.90;99.90;;;-10.40;99.63;100228.09;4981330;28;20029;-68
2022/12/14 05:57:24;;;;;;;35.53;15.50;;;-7.90;99.90;;;-10.45;99.93;100232.16;4986587;28;20026;-68
2022/12/14 05:59:50;;;;;;;35.72;15.10;;;-7.90;99.90;;;-10.41;100.00;100227.22;4986063;28;20031;-68
2022/12/14 06:02:15;;;;;;;42.72;17.23;;;-7.90;99.90;;;-10.30;100.00;100230.09;4982574;28;20762;-68
2022/12/14 06:04:41;;;;;;;47.20;19.70;;;-7.90;99.90;;;-10.17;100.00;100226.16;4999350;28;20036;-68
2022/12/14 06:07:11;;;;;;;50.05;19.92;;;-7.80;99.90;;;-10.09;100.00;100239.97;4983788;28;20032;-68
2022/12/14 06:09:39;;;;;;;47.45;20.85;;;-7.80;99.90;;;-10.06;100.00;100234.09;4999320;28;20088;-68
2022/12/14 06:12:05;;;;;;;50.25;22.05;;;-7.80;99.90;;;-10.04;100.00;100237.56;4969689;28;20033;-68
2022/12/14 06:14:31;;;;;;;47.78;20.45;;;-7.70;99.90;;;-10.01;100.00;100232.56;5000679;28;20034;-68
2022/12/14 06:16:57;;;;;;;47.75;21.38;;;-7.70;99.90;;;-9.97;100.00;100239.47;4965303;28;20113;-68
2022/12/14 06:19:22;;;;;;;44.17;20.05;;;-7.70;99.90;;;-9.92;100.00;100235.38;4982779;28;20125;-68
2022/12/14 06:21:48;;;;;;;42.90;20.00;;;-7.70;99.90;;;-9.97;100.00;100237.78;5002727;28;20096;-69
2022/12/14 06:24:14;;;;;;;52.63;19.35;;;-7.70;99.90;;;-9.96;100.00;100236.94;4985940;28;20118;-68
2022/12/14 06:26:40;;;;;;;42.72;17.08;;;-7.70;99.90;;;-10.08;100.00;100231.53;4965847;28;20037;-68
2022/12/14 06:29:12;;;;;;;42.58;18.88;;;-7.70;99.90;;;-10.13;100.00;100235.59;4981355;28;20457;-69
2022/12/14 06:31:38;;;;;;;47.30;20.33;;;-7.80;99.90;;;-10.28;100.00;100233.47;4980904;28;20041;-69
2022/12/14 06:34:03;;;;;;;43.85;18.63;;;-7.80;99.90;;;-10.34;100.00;100225.72;5003911;28;20129;-68
2022/12/14 06:36:35;;;;;;;45.08;20.27;;;-7.90;99.90;;;-10.34;100.00;100223.19;5004716;28;20216;-68
2022/12/14 06:39:07;;;;;;;49.97;22.77;;;-7.90;99.90;;;-10.25;100.00;100236.13;4999244;28;20030;-68
2022/12/14 06:41:33;;;;;;;48.42;21.35;;;-7.90;99.90;;;-10.21;100.00;100230.31;5004791;28;20073;-68
2022/12/14 06:44:09;;;;;;;50.53;21.65;;;-7.90;99.90;;;-10.21;100.00;100237.09;4985606;28;20500;-68
2022/12/14 06:46:35;;;;;;;45.03;22.27;;;-7.90;99.90;;;-10.21;100.00;100234.56;5006512;28;20113;-68
2022/12/14 06:49:03;;;;;;;47.05;21.70;;;-7.90;99.90;;;-10.20;100.00;100226.94;5006421;28;20037;-68
2022/12/14 06:51:29;;;;;;;59.25;26.90;;;-7.90;99.90;;;-10.25;100.00;100222.56;4987051;28;20030;-68
2022/12/14 06:53:56;;;;;;;46.78;21.50;;;-7.90;99.90;;;-10.17;100.00;100236.34;4987015;28;20503;-68
2022/12/14 06:56:26;;;;;;;45.05;21.35;;;-7.80;99.90;;;-10.16;100.00;100233.00;4984952;28;20042;-68
2022/12/14 06:58:54;;;;;;;47.60;21.95;;;-7.80;99.90;;;-10.11;100.00;100234.88;4988520;28;20038;-68
2022/12/14 07:01:22;;;;;;;49.28;23.15;;;-7.80;99.90;;;-10.10;100.00;100230.63;5005987;28;20038;-69
2022/12/14 07:03:54;;;;;;;42.00;20.98;;;-7.80;99.90;;;-10.07;100.00;100230.69;5004044;28;20038;-68
2022/12/14 07:06:22;;;;;;;41.45;19.40;;;-7.80;99.90;;;-10.04;100.00;100227.38;4983479;28;20480;-68
2022/12/14 07:08:51;;;;;;;44.85;20.33;;;-7.70;99.90;;;-9.98;100.00;100230.09;5005019;28;20061;-68
2022/12/14 07:11:17;;;;;;;46.05;21.17;;;-7.70;99.90;;;-9.97;100.00;100226.75;4991447;28;20057;-68
2022/12/14 07:13:43;;;;;;;38.75;19.55;;;-7.70;99.90;;;-9.99;100.00;100226.69;4986364;28;20052;-69
2022/12/14 07:16:19;;;;;;;43.72;18.98;;;-7.70;99.90;;;-9.99;100.00;100225.84;4986719;28;20050;-68
2022/12/14 07:18:46;;;;;;;35.22;16.80;;;-7.70;99.90;;;-9.98;100.00;100225.00;4985188;28;20064;-68
2022/12/14 07:21:14;;;;;;;39.10;18.70;;;-7.70;99.90;;;-9.97;100.00;100225.06;5006545;28;20096;-68
2022/12/14 07:23:42;;;;;;;44.95;18.40;;;-7.60;99.90;;;-9.95;100.00;100218.31;4990443;28;20113;-68
2022/12/14 07:26:17;;;;;;;44.38;19.80;;;-7.60;99.90;;;-9.95;100.00;100227.66;4986965;28;20505;-68
2022/12/14 07:28:45;;;;;;;43.15;18.77;;;-6.70;99.90;;;-9.91;100.00;100221.81;5002466;28;20042;-68
2022/12/14 07:31:22;;;;;;;42.83;20.00;;;-7.60;99.90;;;-9.92;100.00;100227.72;5012237;23;20056;-77
2022/12/14 07:33:51;;;;;;;45.33;20.73;;;-7.60;99.90;;;-9.91;100.00;100220.13;5047934;28;20747;-76
2022/12/14 07:36:19;;;;;;;40.70;18.92;;;-7.60;99.90;;;-9.93;100.00;100226.88;5042240;28;20025;-75
2022/12/14 07:38:48;;;;;;;53.67;25.13;;;-7.60;99.90;;;-9.92;100.00;100218.38;5027082;28;20032;-75
2022/12/14 07:41:18;;;;;;;48.17;21.58;;;-7.60;99.90;;;-9.94;100.00;100221.72;5034956;28;20033;-76
2022/12/14 07:43:46;;;;;;;41.90;19.70;;;-7.60;99.90;;;-9.90;100.00;100224.41;5039376;28;20068;-75
2022/12/14 07:46:16;;;;;;;45.22;20.55;;;-7.60;99.90;;;-9.83;100.00;100229.66;5041202;28;20520;-75
2022/12/14 07:49:01;;;;;;;45.35;20.88;;;-7.50;99.90;;;-9.80;100.00;100219.56;5029477;28;20317;-74
2022/12/14 07:51:36;;;;;;;45.65;21.17;;;-7.50;99.90;;;-9.80;100.00;100217.88;5063609;28;20750;-75
2022/12/14 07:54:04;;;;;;;48.05;20.17;;;-7.50;99.90;;;-9.75;100.00;100221.41;5023914;28;20037;-75
2022/12/14 07:56:34;;;;;;;37.92;18.92;;;-7.50;99.90;;;-9.79;100.00;100219.59;5038999;28;20497;-75
2022/12/14 07:59:02;;;;;;;42.75;19.52;;;-7.50;99.90;;;-9.73;100.00;100214.66;5024491;28;20602;-75
2022/12/14 08:01:34;;;;;;;39.45;16.85;;;-7.40;99.90;;;-9.75;100.00;100218.84;5025069;28;20060;-75
2022/12/14 08:04:09;;;;;;;45.53;19.02;;;-7.40;99.90;;;-9.72;100.00;100210.44;5042248;28;20393;-76
2022/12/14 08:06:35;;;;;;;;;;;-7.40;99.90;;;-9.73;100.00;100207.03;5020348;28;20025;-76
2022/12/14 08:09:03;;;;;;;42.30;18.10;;;-7.40;99.90;;;-9.68;100.00;100211.38;5040547;28;20011;-77
2022/12/14 08:11:29;;;;;;;41.70;18.95;;;-7.40;99.90;;;-9.68;100.00;100217.34;5040168;28;20033;-78
2022/12/14 08:14:10;;;;;;;45.58;17.95;;;-7.40;99.90;;;-9.65;100.00;100211.44;5041958;28;20037;-75
2022/12/14 08:16:36;;;;;;;38.90;18.70;;;-7.30;99.90;;;-9.62;100.00;100221.75;5037879;28;20140;-75
2022/12/14 08:19:02;;;;;;;35.35;18.02;;;-7.30;99.90;;;-9.55;100.00;100218.53;5039632;28;20374;-76
2022/12/14 08:21:29;;;;;;;41.17;19.05;;;-7.30;99.90;;;-9.50;100.00;100211.88;5040992;28;20041;-76
2022/12/14 08:23:56;;;;;;;40.05;19.38;;;-7.20;99.90;;;-9.47;100.00;100211.09;5039542;28;20037;-76
2022/12/14 08:26:24;;;;;;;33.70;16.05;;;-7.20;99.90;;;-9.41;100.00;100209.56;5040377;28;20477;-76
2022/12/14 08:28:50;;;;;;;41.88;18.20;;;-7.10;99.90;;;-9.36;100.00;100215.63;5039011;28;20029;-76
2022/12/14 08:31:19;;;;;;;45.13;20.45;;;-7.10;99.90;;;-9.35;100.00;100213.94;5038900;28;20032;-75
2022/12/14 08:33:47;;;;;;;43.13;19.77;;;-7.10;99.90;;;-9.35;100.00;100214.81;5040714;28;20083;-76
2022/12/14 08:36:26;;;;;;;40.35;19.05;;;-7.10;99.90;;;-9.33;100.00;100220.84;5017351;28;20041;-76
2022/12/14 08:39:04;;;;;;;38.03;18.52;;;-7.10;99.90;;;-9.30;100.00;100215.78;5036399;28;20394;-76
2022/12/14 08:41:31;;;;;;;42.38;18.08;;;-7.00;99.90;;;-9.18;100.00;100225.44;5033542;28;20045;-76
2022/12/14 08:43:59;;;;;;;43.25;18.63;;;-7.00;99.90;;;-9.14;100.00;100211.94;5030424;28;20107;-75
2022/12/14 08:46:28;;;;;;;46.88;20.75;;;-7.00;99.90;;;-9.07;100.00;100220.59;5046212;28;20040;-76
2022/12/14 08:48:54;;;;;;;43.63;19.63;;;-6.90;99.90;;;-9.02;99.63;100223.28;5043992;28;20119;-76
2022/12/14 08:51:22;;;;;;;43.30;20.27;;;-6.90;99.90;;;-9.01;99.90;100225.84;5036610;28;20029;-77
2022/12/14 08:53:48;;;;;;;38.38;18.73;;;-6.90;99.90;;;-9.03;99.30;100221.53;5017850;28;20094;-76
2022/12/14 08:56:18;;;;;;;41.45;18.77;;;-6.90;99.90;;;-8.98;98.43;100223.38;5029643;28;20025;-76
2022/12/14 08:58:45;;;;;;;43.13;19.52;;;-6.90;99.90;;;-8.94;98.23;100217.53;5039222;28;20094;-75
2022/12/14 09:01:14;;;;;;;41.83;18.83;;;-6.90;99.90;;;-8.93;98.33;100219.25;5023103;28;20033;-76
2022/12/14 09:03:43;;;;;;;41.17;19.65;;;-6.90;99.90;;;-8.94;97.91;100215.00;5044510;28;20041;-75
2022/12/14 09:06:13;;;;;;;44.50;20.38;;;-6.80;99.90;;;-8.93;98.04;100211.59;5013181;28;20041;-76
2022/12/14 09:08:39;;;;;;;43.45;20.13;;;-6.80;99.90;;;-8.88;97.74;100211.69;5021744;28;20502;-76
2022/12/14 09:11:14;;;;;;;49.85;22.02;;;-6.80;99.90;;;-8.81;98.01;100213.59;5037376;28;20106;-77
2022/12/14 09:13:43;;;;;;;37.67;19.50;;;-6.70;99.90;;;-8.77;97.94;100210.25;5045002;28;20045;-75
2022/12/14 09:16:20;;;;;;;47.17;19.95;;;-6.60;99.90;;;-8.75;97.79;100205.19;5035255;28;20434;-75
2022/12/14 09:18:53;;;;;;;43.30;19.38;;;-6.60;99.90;;;-8.73;97.86;100213.75;5037383;28;20026;-75
2022/12/14 09:21:21;;;;;;;53.10;20.00;;;-6.50;99.90;;;-8.69;98.72;100200.25;5045716;28;20064;-76
2022/12/14 09:23:47;;;;;;;44.75;20.63;;;-6.50;99.90;;;-8.60;98.59;100207.25;5033553;28;20045;-77
2022/12/14 09:26:16;;;;;;;41.55;19.83;;;-6.40;99.90;;;-8.55;97.58;100209.06;5031033;28;20036;-77
2022/12/14 09:28:47;;;;;;;41.63;19.90;;;-6.40;99.90;;;-8.46;98.14;100208.41;5028789;28;20132;-76
2022/12/14 09:31:19;;;;;;;41.13;19.63;;;-6.40;99.90;;;-8.42;97.73;100211.88;5028824;28;20091;-76
2022/12/14 09:33:45;;;;;;;44.67;20.48;;;-6.40;99.90;;;-8.39;97.89;100202.56;5029005;28;20072;-76
2022/12/14 09:36:24;;;;;;;42.85;20.33;;;-6.30;99.90;;;-8.37;98.23;100197.50;5030532;28;20449;-76
2022/12/14 09:38:54;;;;;;;43.13;20.65;;;-6.30;99.90;;;-8.36;97.95;100200.06;5029143;28;20041;-76
2022/12/14 09:41:35;;;;;;;44.75;19.85;;;-6.20;99.90;;;-8.31;97.85;100197.66;5042550;28;20069;-77
2022/12/14 09:44:12;;;;;;;46.38;20.20;;;-6.20;99.90;;;-8.26;96.86;100193.47;5029539;28;20071;-76
2022/12/14 09:47:17;;;;;;;46.33;20.50;;;-6.10;99.90;;;-8.17;96.96;100190.25;5028854;28;20035;-77
2022/12/14 09:50:16;;;;;;;41.33;20.20;;;-6.10;99.90;;;-8.11;96.99;100193.78;5021034;28;20036;-76
2022/12/14 09:52:57;;;;;;;39.28;19.40;;;-6.00;99.90;;;-8.10;97.20;100192.97;5033259;28;20563;-78
2022/12/14 09:55:50;;;;;;;41.28;19.30;;;-6.00;99.90;;;-8.04;96.96;100182.84;5027936;28;20124;-77
2022/12/14 09:58:24;;;;;;;44.63;19.83;;;-5.80;99.90;;;-7.84;96.88;100183.28;5026853;28;20041;-77
2022/12/14 10:01:40;;;;;;;37.73;17.83;;;-5.60;99.90;;;-7.58;97.20;100177.78;5028845;28;20049;-76
2022/12/14 10:04:38;;;;;;;39.20;18.38;;;-5.10;99.90;;;-7.30;97.67;100184.25;5031532;28;20412;-76
2022/12/14 10:07:22;;;;;;;35.33;17.27;;;-4.80;99.90;;;-7.17;97.22;100174.19;5042113;28;20201;-76
2022/12/14 10:10:13;;;;;;;35.92;17.92;;;-4.70;99.90;;;-7.07;96.11;100165.84;5030100;28;20037;-76
2022/12/14 10:13:10;;;;;;;36.90;18.58;;;-4.70;99.90;;;-7.07;95.21;100155.59;5028648;28;20033;-76
2022/12/14 10:15:41;;;;;;;34.95;17.85;;;-4.80;99.90;;;-7.15;94.95;100155.47;5036965;28;20026;-77
2022/12/14 10:18:44;;;;;;;35.65;16.83;;;-4.90;99.90;;;-7.11;94.67;100156.38;5037638;28;20444;-76
2022/12/14 10:21:17;;;;;;;28.02;14.65;;;-4.90;99.90;;;-7.11;93.81;100151.25;5029126;28;20045;-76
2022/12/14 10:24:13;;;;;;;37.58;18.05;;;-4.90;99.90;;;-7.00;93.55;100149.72;5027755;28;20048;-76
2022/12/14 10:26:53;;;;;;;35.17;18.15;;;-4.90;99.90;;;-6.90;92.83;100151.59;5044757;28;20159;-75
2022/12/14 10:29:56;;;;;;;37.83;17.77;;;-4.80;99.90;;;-6.79;92.88;100151.75;5020755;28;20045;-76
2022/12/14 10:32:36;;;;;;;34.50;18.00;;;-4.70;99.90;;;-6.64;92.72;100151.97;5028176;28;20038;-76
2022/12/14 10:35:13;;;;;;;34.53;17.05;;;-4.60;99.90;;;-6.52;91.40;100141.03;5028481;28;20071;-76
2022/12/14 10:37:46;;;;;;;33.75;17.30;;;-4.60;99.90;;;-6.52;91.25;100145.28;5028706;28;20116;-76
2022/12/14 10:40:32;;;;;;;32.35;17.33;;;-4.50;99.90;;;-6.48;90.89;100142.81;5028515;28;20440;-76